sensor_id;sensor_type;location;lat;lon;timestamp;pressure;altitude;pressure_sealevel;temperature;humidity
25498;BME280;13406;53.380;7.226;2022-07-29T00:02:21;102088.88;;;15.10;100.00
25498;BME280;13406;53.380;7.226;2022-07-29T00:04:47;102044.63;;;14.83;100.00
25498;BME280;13406;53.380;7.226;2022-07-29T00:07:12;101969.19;;;14.46;100.00
25498;BME280;13406;53.380;7.226;2022-07-29T00:09:37;102083.47;;;15.10;100.00
25498;BME280;13406;53.380;7.226;2022-07-29T00:12:03;101941.66;;;14.30;100.00
25498;BME280;13406;53.380;7.226;2022-07-29T00:14:29;101916.22;;;14.17;100.00
25498;BME280;13406;53.380;7.226;2022-07-29T00:16:54;102041.22;;;14.96;100.00
25498;BME280;13406;53.380;7.226;2022-07-29T00:19:20;102057.03;;;14.99;100.00
25498;BME280;13406;53.380;7.226;2022-07-29T00:21:45;102066.25;;;15.18;100.00
25498;BME280;13406;53.380;7.226;2022-07-29T00:24:11;101755.88;;;13.14;100.00
25498;BME280;13406;53.380;7.226;2022-07-29T00:26:36;102039.56;;;15.01;100.00
25498;BME280;13406;53.380;7.226;2022-07-29T00:29:03;102054.34;;;15.05;100.00
25498;BME280;13406;53.380;7.226;2022-07-29T00:31:29;101971.59;;;14.63;100.00
25498;BME280;13406;53.380;7.226;2022-07-29T00:33:55;102047.31;;;15.11;100.00
25498;BME280;13406;53.380;7.226;2022-07-29T00:36:21;101972.06;;;14.45;100.00
25498;BME280;13406;53.380;7.226;2022-07-29T00:38:50;102030.50;;;14.81;100.00
25498;BME280;13406;53.380;7.226;2022-07-29T00:41:17;102014.00;;;15.04;100.00
25498;BME280;13406;53.380;7.226;2022-07-29T00:43:43;102049.59;;;15.07;100.00
25498;BME280;13406;53.380;7.226;2022-07-29T00:46:09;102045.69;;;15.17;100.00
25498;BME280;13406;53.380;7.226;2022-07-29T00:48:35;101974.03;;;14.58;100.00
25498;BME280;13406;53.380;7.226;2022-07-29T00:51:03;102048.41;;;14.88;100.00
25498;BME280;13406;53.380;7.226;2022-07-29T00:53:30;102050.53;;;14.93;100.00
25498;BME280;13406;53.380;7.226;2022-07-29T00:55:56;101928.84;;;14.38;100.00
25498;BME280;13406;53.380;7.226;2022-07-29T00:58:24;101981.44;;;14.49;100.00
25498;BME280;13406;53.380;7.226;2022-07-29T01:00:50;102000.91;;;14.66;100.00
25498;BME280;13406;53.380;7.226;2022-07-29T01:03:16;102038.94;;;14.99;100.00
25498;BME280;13406;53.380;7.226;2022-07-29T01:05:43;102027.34;;;15.12;100.00
25498;BME280;13406;53.380;7.226;2022-07-29T01:08:11;102033.59;;;15.12;100.00
25498;BME280;13406;53.380;7.226;2022-07-29T01:10:37;101950.47;;;14.45;100.00
25498;BME280;13406;53.380;7.226;2022-07-29T01:13:04;101867.72;;;14.24;100.00
25498;BME280;13406;53.380;7.226;2022-07-29T01:15:30;101993.59;;;14.95;100.00
25498;BME280;13406;53.380;7.226;2022-07-29T01:18:08;101882.06;;;14.31;100.00
25498;BME280;13406;53.380;7.226;2022-07-29T01:26:27;101967.88;;;14.99;100.00
25498;BME280;13406;53.380;7.226;2022-07-29T01:29:21;101984.38;;;15.24;100.00
25498;BME280;13406;53.380;7.226;2022-07-29T01:31:55;101947.16;;;15.19;100.00
25498;BME280;13406;53.380;7.226;2022-07-29T01:34:25;101962.13;;;15.22;100.00
25498;BME280;13406;53.380;7.226;2022-07-29T01:37:03;101940.91;;;15.19;100.00
25498;BME280;13406;53.380;7.226;2022-07-29T01:39:34;101987.97;;;15.44;100.00
25498;BME280;13406;53.380;7.226;2022-07-29T01:42:12;101915.22;;;14.88;100.00
25498;BME280;13406;53.380;7.226;2022-07-29T01:44:47;101927.78;;;15.09;100.00
25498;BME280;13406;53.380;7.226;2022-07-29T01:47:19;101844.03;;;14.54;100.00
25498;BME280;13406;53.380;7.226;2022-07-29T01:49:49;101922.19;;;15.17;100.00
25498;BME280;13406;53.380;7.226;2022-07-29T01:52:21;101860.28;;;14.67;100.00
25498;BME280;13406;53.380;7.226;2022-07-29T01:54:59;101968.19;;;15.30;100.00
25498;BME280;13406;53.380;7.226;2022-07-29T01:57:28;101946.31;;;15.19;100.00
25498;BME280;13406;53.380;7.226;2022-07-29T01:59:56;101964.09;;;15.48;100.00
25498;BME280;13406;53.380;7.226;2022-07-29T02:02:22;101863.47;;;14.84;100.00
25498;BME280;13406;53.380;7.226;2022-07-29T02:04:49;101850.97;;;14.77;100.00
25498;BME280;13406;53.380;7.226;2022-07-29T02:07:18;101782.91;;;14.05;100.00
25498;BME280;13406;53.380;7.226;2022-07-29T02:09:45;101814.91;;;14.50;100.00
25498;BME280;13406;53.380;7.226;2022-07-29T02:12:14;101888.28;;;15.08;100.00
25498;BME280;13406;53.380;7.226;2022-07-29T02:14:45;101918.50;;;15.25;100.00
25498;BME280;13406;53.380;7.226;2022-07-29T02:17:13;101950.56;;;15.48;100.00
25498;BME280;13406;53.380;7.226;2022-07-29T02:19:42;101814.75;;;14.58;100.00
25498;BME280;13406;53.380;7.226;2022-07-29T02:22:09;101954.53;;;15.45;100.00
25498;BME280;13406;53.380;7.226;2022-07-29T02:24:37;101961.28;;;15.21;100.00
25498;BME280;13406;53.380;7.226;2022-07-29T02:27:05;101842.88;;;14.83;100.00
25498;BME280;13406;53.380;7.226;2022-07-29T02:29:32;101819.22;;;14.79;100.00
25498;BME280;13406;53.380;7.226;2022-07-29T02:32:00;101694.53;;;14.07;100.00
25498;BME280;13406;53.380;7.226;2022-07-29T02:34:29;101873.31;;;15.05;100.00
25498;BME280;13406;53.380;7.226;2022-07-29T02:36:55;101936.47;;;15.66;100.00
25498;BME280;13406;53.380;7.226;2022-07-29T02:39:22;101932.91;;;15.58;100.00
25498;BME280;13406;53.380;7.226;2022-07-29T02:41:55;101907.28;;;15.28;100.00
25498;BME280;13406;53.380;7.226;2022-07-29T02:44:24;101938.31;;;15.45;100.00
25498;BME280;13406;53.380;7.226;2022-07-29T02:46:54;101953.09;;;15.63;100.00
25498;BME280;13406;53.380;7.226;2022-07-29T02:52:21;101908.75;;;15.37;100.00
25498;BME280;13406;53.380;7.226;2022-07-29T02:55:02;101932.47;;;15.62;100.00
25498;BME280;13406;53.380;7.226;2022-07-29T02:57:36;101888.53;;;15.20;100.00
25498;BME280;13406;53.380;7.226;2022-07-29T03:00:08;101794.91;;;14.85;100.00
25498;BME280;13406;53.380;7.226;2022-07-29T03:02:36;101928.31;;;15.52;100.00
25498;BME280;13406;53.380;7.226;2022-07-29T03:05:03;101816.56;;;14.99;100.00
25498;BME280;13406;53.380;7.226;2022-07-29T03:07:30;101868.78;;;15.32;100.00
25498;BME280;13406;53.380;7.226;2022-07-29T03:09:57;101864.44;;;15.31;100.00
25498;BME280;13406;53.380;7.226;2022-07-29T03:12:23;101919.31;;;15.32;100.00
25498;BME280;13406;53.380;7.226;2022-07-29T03:14:50;101864.84;;;15.22;100.00
25498;BME280;13406;53.380;7.226;2022-07-29T03:17:16;101775.34;;;14.70;100.00
25498;BME280;13406;53.380;7.226;2022-07-29T03:19:41;101862.78;;;15.37;100.00
25498;BME280;13406;53.380;7.226;2022-07-29T03:24:36;101901.31;;;15.66;100.00
25498;BME280;13406;53.380;7.226;2022-07-29T03:27:03;101885.28;;;15.57;100.00
25498;BME280;13406;53.380;7.226;2022-07-29T03:29:29;101902.13;;;15.59;100.00
25498;BME280;13406;53.380;7.226;2022-07-29T03:31:55;101890.47;;;15.66;100.00
25498;BME280;13406;53.380;7.226;2022-07-29T03:34:20;101901.00;;;15.27;100.00
25498;BME280;13406;53.380;7.226;2022-07-29T03:36:46;101904.34;;;15.29;100.00
25498;BME280;13406;53.380;7.226;2022-07-29T03:39:12;101905.59;;;15.27;100.00
25498;BME280;13406;53.380;7.226;2022-07-29T03:41:42;101897.28;;;15.42;100.00
25498;BME280;13406;53.380;7.226;2022-07-29T03:44:09;101869.84;;;15.31;100.00
25498;BME280;13406;53.380;7.226;2022-07-29T03:46:35;101883.59;;;15.36;100.00
25498;BME280;13406;53.380;7.226;2022-07-29T03:49:03;101896.69;;;15.40;100.00
25498;BME280;13406;53.380;7.226;2022-07-29T03:51:30;101896.28;;;15.43;100.00
25498;BME280;13406;53.380;7.226;2022-07-29T03:53:56;101899.16;;;15.34;100.00
25498;BME280;13406;53.380;7.226;2022-07-29T03:56:22;101889.13;;;15.15;100.00
25498;BME280;13406;53.380;7.226;2022-07-29T03:58:52;101898.13;;;15.29;100.00
25498;BME280;13406;53.380;7.226;2022-07-29T04:01:18;101899.50;;;15.05;100.00
25498;BME280;13406;53.380;7.226;2022-07-29T04:03:45;101902.81;;;15.07;100.00
25498;BME280;13406;53.380;7.226;2022-07-29T04:06:11;101855.75;;;14.75;100.00
25498;BME280;13406;53.380;7.226;2022-07-29T04:08:37;101852.94;;;14.96;100.00
25498;BME280;13406;53.380;7.226;2022-07-29T04:11:03;101905.69;;;14.92;100.00
25498;BME280;13406;53.380;7.226;2022-07-29T04:13:30;101900.56;;;15.10;100.00
25498;BME280;13406;53.380;7.226;2022-07-29T04:15:55;101889.38;;;15.27;100.00
25498;BME280;13406;53.380;7.226;2022-07-29T04:18:21;101864.78;;;15.02;100.00
25498;BME280;13406;53.380;7.226;2022-07-29T04:20:46;101886.69;;;15.40;100.00
25498;BME280;13406;53.380;7.226;2022-07-29T04:23:12;101893.34;;;15.31;100.00
25498;BME280;13406;53.380;7.226;2022-07-29T04:25:39;101899.59;;;15.38;100.00
25498;BME280;13406;53.380;7.226;2022-07-29T04:28:05;101877.53;;;15.28;100.00
25498;BME280;13406;53.380;7.226;2022-07-29T04:30:31;101891.31;;;15.59;100.00
25498;BME280;13406;53.380;7.226;2022-07-29T04:32:58;101894.41;;;15.43;100.00
25498;BME280;13406;53.380;7.226;2022-07-29T04:35:24;101885.47;;;15.43;100.00
25498;BME280;13406;53.380;7.226;2022-07-29T04:37:49;101864.84;;;15.22;100.00
25498;BME280;13406;53.380;7.226;2022-07-29T04:40:14;101890.66;;;15.31;100.00
25498;BME280;13406;53.380;7.226;2022-07-29T04:42:40;101777.22;;;14.69;100.00
25498;BME280;13406;53.380;7.226;2022-07-29T04:45:06;101789.50;;;14.92;100.00
25498;BME280;13406;53.380;7.226;2022-07-29T04:47:31;101861.72;;;15.25;100.00
25498;BME280;13406;53.380;7.226;2022-07-29T04:49:57;101866.13;;;15.46;100.00
25498;BME280;13406;53.380;7.226;2022-07-29T04:52:23;101883.19;;;15.46;100.00
25498;BME280;13406;53.380;7.226;2022-07-29T04:54:49;101883.63;;;15.56;100.00
25498;BME280;13406;53.380;7.226;2022-07-29T04:57:14;101892.16;;;15.60;100.00
25498;BME280;13406;53.380;7.226;2022-07-29T04:59:40;101891.34;;;15.73;100.00
25498;BME280;13406;53.380;7.226;2022-07-29T05:02:05;101895.22;;;15.50;100.00
25498;BME280;13406;53.380;7.226;2022-07-29T05:04:31;101787.63;;;14.86;100.00
25498;BME280;13406;53.380;7.226;2022-07-29T05:06:56;101900.44;;;15.52;100.00
25498;BME280;13406;53.380;7.226;2022-07-29T05:09:22;101891.97;;;15.75;100.00
25498;BME280;13406;53.380;7.226;2022-07-29T05:11:47;101889.44;;;15.60;100.00
25498;BME280;13406;53.380;7.226;2022-07-29T05:14:13;101887.56;;;15.67;100.00
25498;BME280;13406;53.380;7.226;2022-07-29T05:16:38;101893.19;;;15.66;100.00
25498;BME280;13406;53.380;7.226;2022-07-29T05:19:07;101892.97;;;15.67;100.00
25498;BME280;13406;53.380;7.226;2022-07-29T05:21:33;101887.16;;;15.57;100.00
25498;BME280;13406;53.380;7.226;2022-07-29T05:23:58;101877.72;;;15.33;100.00
25498;BME280;13406;53.380;7.226;2022-07-29T05:26:23;101884.44;;;15.64;100.00
25498;BME280;13406;53.380;7.226;2022-07-29T05:28:49;101807.88;;;15.23;100.00
25498;BME280;13406;53.380;7.226;2022-07-29T05:31:15;101883.03;;;15.74;100.00
25498;BME280;13406;53.380;7.226;2022-07-29T05:33:41;101878.03;;;15.78;100.00
25498;BME280;13406;53.380;7.226;2022-07-29T05:36:07;101892.19;;;15.80;100.00
25498;BME280;13406;53.380;7.226;2022-07-29T05:38:35;101884.44;;;15.64;100.00
25498;BME280;13406;53.380;7.226;2022-07-29T05:41:01;101772.09;;;15.14;100.00
25498;BME280;13406;53.380;7.226;2022-07-29T05:43:28;101873.25;;;15.87;100.00
25498;BME280;13406;53.380;7.226;2022-07-29T05:45:53;101880.13;;;15.69;100.00
25498;BME280;13406;53.380;7.226;2022-07-29T05:48:19;101885.72;;;15.88;100.00
25498;BME280;13406;53.380;7.226;2022-07-29T05:50:44;101877.41;;;15.82;100.00
25498;BME280;13406;53.380;7.226;2022-07-29T05:53:10;101886.78;;;15.80;100.00
25498;BME280;13406;53.380;7.226;2022-07-29T05:55:35;101881.34;;;15.93;100.00
25498;BME280;13406;53.380;7.226;2022-07-29T05:58:00;101850.97;;;15.78;100.00
25498;BME280;13406;53.380;7.226;2022-07-29T06:00:26;101853.28;;;15.94;100.00
25498;BME280;13406;53.380;7.226;2022-07-29T06:02:51;101874.03;;;16.14;100.00
25498;BME280;13406;53.380;7.226;2022-07-29T06:05:17;101883.88;;;15.95;100.00
25498;BME280;13406;53.380;7.226;2022-07-29T06:07:42;101845.34;;;15.99;100.00
25498;BME280;13406;53.380;7.226;2022-07-29T06:10:08;101839.69;;;16.08;100.00
25498;BME280;13406;53.380;7.226;2022-07-29T06:12:34;101758.41;;;15.69;100.00
25498;BME280;13406;53.380;7.226;2022-07-29T06:14:59;101868.81;;;16.32;100.00
25498;BME280;13406;53.380;7.226;2022-07-29T06:17:25;101845.94;;;16.15;100.00
25498;BME280;13406;53.380;7.226;2022-07-29T06:19:50;101866.13;;;16.32;100.00
25498;BME280;13406;53.380;7.226;2022-07-29T06:22:16;101857.78;;;16.40;100.00
25498;BME280;13406;53.380;7.226;2022-07-29T06:24:42;101859.88;;;16.32;100.00
25498;BME280;13406;53.380;7.226;2022-07-29T06:27:10;101845.47;;;16.31;100.00
25498;BME280;13406;53.380;7.226;2022-07-29T06:29:36;101866.25;;;16.50;100.00
25498;BME280;13406;53.380;7.226;2022-07-29T06:32:01;101869.78;;;16.51;100.00
25498;BME280;13406;53.380;7.226;2022-07-29T06:34:27;101867.69;;;16.60;100.00
25498;BME280;13406;53.380;7.226;2022-07-29T06:36:53;101865.00;;;16.53;100.00
25498;BME280;13406;53.380;7.226;2022-07-29T06:39:18;101869.72;;;16.71;100.00
25498;BME280;13406;53.380;7.226;2022-07-29T06:41:49;101872.44;;;16.71;100.00
25498;BME280;13406;53.380;7.226;2022-07-29T06:44:16;101864.13;;;16.66;100.00
25498;BME280;13406;53.380;7.226;2022-07-29T06:46:42;101866.59;;;16.74;100.00
25498;BME280;13406;53.380;7.226;2022-07-29T06:49:07;101859.28;;;16.75;100.00
25498;BME280;13406;53.380;7.226;2022-07-29T06:51:33;101866.00;;;16.79;100.00
25498;BME280;13406;53.380;7.226;2022-07-29T06:53:59;101849.16;;;16.57;100.00
25498;BME280;13406;53.380;7.226;2022-07-29T06:56:26;101870.06;;;16.94;100.00
25498;BME280;13406;53.380;7.226;2022-07-29T06:58:51;101856.81;;;16.80;100.00
25498;BME280;13406;53.380;7.226;2022-07-29T07:01:17;101863.88;;;16.87;100.00
25498;BME280;13406;53.380;7.226;2022-07-29T07:03:42;101867.41;;;16.88;100.00
25498;BME280;13406;53.380;7.226;2022-07-29T07:06:07;101839.47;;;16.87;100.00
25498;BME280;13406;53.380;7.226;2022-07-29T07:08:33;101863.56;;;17.02;100.00
25498;BME280;13406;53.380;7.226;2022-07-29T07:10:58;101858.88;;;16.84;100.00
25498;BME280;13406;53.380;7.226;2022-07-29T07:13:24;101841.53;;;16.92;100.00
25498;BME280;13406;53.380;7.226;2022-07-29T07:15:50;101855.78;;;17.12;100.00
25498;BME280;13406;53.380;7.226;2022-07-29T07:18:17;101853.25;;;17.17;100.00
25498;BME280;13406;53.380;7.226;2022-07-29T07:20:43;101856.94;;;17.30;100.00
25498;BME280;13406;53.380;7.226;2022-07-29T07:23:09;101825.25;;;16.92;100.00
25498;BME280;13406;53.380;7.226;2022-07-29T07:25:35;101854.06;;;17.25;100.00
25498;BME280;13406;53.380;7.226;2022-07-29T07:28:01;101810.06;;;16.91;100.00
25498;BME280;13406;53.380;7.226;2022-07-29T07:30:26;101860.63;;;17.10;100.00
25498;BME280;13406;53.380;7.226;2022-07-29T07:32:52;101849.47;;;17.25;100.00
25498;BME280;13406;53.380;7.226;2022-07-29T07:35:18;101829.78;;;17.36;100.00
25498;BME280;13406;53.380;7.226;2022-07-29T07:37:43;101810.25;;;17.28;100.00
25498;BME280;13406;53.380;7.226;2022-07-29T07:40:10;101832.63;;;17.48;100.00
25498;BME280;13406;53.380;7.226;2022-07-29T07:42:37;101864.13;;;17.74;100.00
25498;BME280;13406;53.380;7.226;2022-07-29T07:45:03;101864.09;;;17.81;100.00
25498;BME280;13406;53.380;7.226;2022-07-29T07:47:30;101857.34;;;17.90;100.00
25498;BME280;13406;53.380;7.226;2022-07-29T07:49:55;101807.88;;;17.63;100.00
25498;BME280;13406;53.380;7.226;2022-07-29T07:52:21;101872.41;;;17.86;100.00
25498;BME280;13406;53.380;7.226;2022-07-29T07:54:47;101865.53;;;18.09;100.00
25498;BME280;13406;53.380;7.226;2022-07-29T07:57:13;101869.69;;;18.11;100.00
25498;BME280;13406;53.380;7.226;2022-07-29T07:59:40;101870.22;;;18.20;100.00
25498;BME280;13406;53.380;7.226;2022-07-29T08:02:06;101863.66;;;18.09;100.00
25498;BME280;13406;53.380;7.226;2022-07-29T08:04:31;101864.72;;;18.26;100.00
25498;BME280;13406;53.380;7.226;2022-07-29T08:06:58;101833.31;;;18.12;100.00
25498;BME280;13406;53.380;7.226;2022-07-29T08:09:24;101857.56;;;18.50;100.00
25498;BME280;13406;53.380;7.226;2022-07-29T08:11:50;101822.63;;;18.36;100.00
25498;BME280;13406;53.380;7.226;2022-07-29T08:14:16;101838.59;;;18.62;100.00
25498;BME280;13406;53.380;7.226;2022-07-29T08:16:42;101846.63;;;18.76;100.00
25498;BME280;13406;53.380;7.226;2022-07-29T08:19:08;101847.59;;;18.81;100.00
25498;BME280;13406;53.380;7.226;2022-07-29T08:21:34;101814.38;;;18.61;100.00
25498;BME280;13406;53.380;7.226;2022-07-29T08:23:59;101843.28;;;18.73;100.00
25498;BME280;13406;53.380;7.226;2022-07-29T08:26:44;101811.78;;;18.66;100.00
25498;BME280;13406;53.380;7.226;2022-07-29T08:29:10;101786.91;;;18.50;100.00
25498;BME280;13406;53.380;7.226;2022-07-29T08:31:37;101835.44;;;18.84;100.00
25498;BME280;13406;53.380;7.226;2022-07-29T08:34:03;101760.47;;;18.46;100.00
25498;BME280;13406;53.380;7.226;2022-07-29T08:36:29;101832.25;;;18.87;100.00
25498;BME280;13406;53.380;7.226;2022-07-29T08:38:55;101821.25;;;18.82;100.00
25498;BME280;13406;53.380;7.226;2022-07-29T08:41:21;101843.91;;;19.06;100.00
25498;BME280;13406;53.380;7.226;2022-07-29T08:43:48;101847.59;;;19.11;100.00
25498;BME280;13406;53.380;7.226;2022-07-29T08:46:14;101851.13;;;19.12;100.00
25498;BME280;13406;53.380;7.226;2022-07-29T08:48:41;101808.78;;;18.74;100.00
25498;BME280;13406;53.380;7.226;2022-07-29T08:51:07;101820.19;;;18.83;100.00
25498;BME280;13406;53.380;7.226;2022-07-29T08:53:33;101839.28;;;19.06;100.00
25498;BME280;13406;53.380;7.226;2022-07-29T08:55:59;101837.94;;;19.15;100.00
25498;BME280;13406;53.380;7.226;2022-07-29T08:58:31;101833.81;;;19.25;100.00
25498;BME280;13406;53.380;7.226;2022-07-29T09:00:57;101831.22;;;19.30;100.00
25498;BME280;13406;53.380;7.226;2022-07-29T09:03:30;101831.94;;;19.37;100.00
25498;BME280;13406;53.380;7.226;2022-07-29T09:05:58;101774.25;;;18.93;100.00
25498;BME280;13406;53.380;7.226;2022-07-29T09:08:24;101782.16;;;18.94;100.00
25498;BME280;13406;53.380;7.226;2022-07-29T09:10:50;101843.44;;;19.39;100.00
25498;BME280;13406;53.380;7.226;2022-07-29T09:13:16;101831.22;;;19.30;100.00
25498;BME280;13406;53.380;7.226;2022-07-29T09:15:41;101816.88;;;19.23;100.00
25498;BME280;13406;53.380;7.226;2022-07-29T09:18:07;101840.25;;;19.54;100.00
25498;BME280;13406;53.380;7.226;2022-07-29T09:20:32;101841.91;;;19.55;100.00
25498;BME280;13406;53.380;7.226;2022-07-29T09:23:16;101848.06;;;19.50;100.00
25498;BME280;13406;53.380;7.226;2022-07-29T09:25:42;101847.81;;;19.52;100.00
25498;BME280;13406;53.380;7.226;2022-07-29T09:28:08;101850.69;;;19.57;100.00
25498;BME280;13406;53.380;7.226;2022-07-29T09:30:34;101799.38;;;19.18;100.00
25498;BME280;13406;53.380;7.226;2022-07-29T09:33:01;101778.59;;;19.24;100.00
25498;BME280;13406;53.380;7.226;2022-07-29T09:35:28;101752.34;;;19.18;100.00
25498;BME280;13406;53.380;7.226;2022-07-29T09:37:54;101807.47;;;19.49;100.00
25498;BME280;13406;53.380;7.226;2022-07-29T09:40:30;101852.28;;;19.88;100.00
25498;BME280;13406;53.380;7.226;2022-07-29T09:42:55;101859.03;;;19.85;100.00
25498;BME280;13406;53.380;7.226;2022-07-29T09:45:33;101846.00;;;19.88;100.00
25498;BME280;13406;53.380;7.226;2022-07-29T09:48:00;101846.84;;;20.00;100.00
25498;BME280;13406;53.380;7.226;2022-07-29T09:50:41;101846.34;;;19.91;100.00
25498;BME280;13406;53.380;7.226;2022-07-29T09:53:08;101784.53;;;19.56;100.00
25498;BME280;13406;53.380;7.226;2022-07-29T09:55:47;101822.31;;;20.00;100.00
25498;BME280;13406;53.380;7.226;2022-07-29T09:58:19;101823.00;;;20.19;100.00
25498;BME280;13406;53.380;7.226;2022-07-29T10:00:45;101799.94;;;19.98;100.00
25498;BME280;13406;53.380;7.226;2022-07-29T10:03:12;101821.59;;;20.28;100.00
25498;BME280;13406;53.380;7.226;2022-07-29T10:05:38;101608.06;;;18.78;100.00
25498;BME280;13406;53.380;7.226;2022-07-29T10:08:04;101739.72;;;19.71;100.00
25498;BME280;13406;53.380;7.226;2022-07-29T10:10:32;101826.31;;;20.32;100.00
25498;BME280;13406;53.380;7.226;2022-07-29T10:13:04;101748.53;;;20.01;100.00
25498;BME280;13406;53.380;7.226;2022-07-29T10:15:32;101767.59;;;20.01;100.00
25498;BME280;13406;53.380;7.226;2022-07-29T10:17:58;101829.75;;;20.40;100.00
25498;BME280;13406;53.380;7.226;2022-07-29T10:20:25;101799.69;;;20.23;100.00
25498;BME280;13406;53.380;7.226;2022-07-29T10:22:51;101755.53;;;20.09;100.00
25498;BME280;13406;53.380;7.226;2022-07-29T10:25:18;101755.31;;;20.11;100.00
25498;BME280;13406;53.380;7.226;2022-07-29T10:27:46;101771.81;;;20.32;100.00
25498;BME280;13406;53.380;7.226;2022-07-29T10:30:12;101814.94;;;20.76;100.00
25498;BME280;13406;53.380;7.226;2022-07-29T10:33:04;101811.13;;;20.77;100.00
25498;BME280;13406;53.380;7.226;2022-07-29T10:41:51;101752.88;;;20.66;100.00
25498;BME280;13406;53.380;7.226;2022-07-29T10:44:22;101787.72;;;20.93;100.00
25498;BME280;13406;53.380;7.226;2022-07-29T10:46:49;101742.84;;;20.84;100.00
25498;BME280;13406;53.380;7.226;2022-07-29T10:49:16;101811.59;;;21.31;100.00
25498;BME280;13406;53.380;7.226;2022-07-29T10:54:41;101780.63;;;21.09;100.00
25498;BME280;13406;53.380;7.226;2022-07-29T10:59:40;101809.06;;;21.41;100.00
25498;BME280;13406;53.380;7.226;2022-07-29T11:07:31;101741.19;;;20.99;100.00
25498;BME280;13406;53.380;7.226;2022-07-29T11:15:09;101801.06;;;21.23;100.00
25498;BME280;13406;53.380;7.226;2022-07-29T11:23:23;101800.84;;;21.25;100.00
25498;BME280;13406;53.380;7.226;2022-07-29T11:29:03;101791.69;;;21.48;100.00
25498;BME280;13406;53.380;7.226;2022-07-29T11:31:32;101794.50;;;21.53;100.00
25498;BME280;13406;53.380;7.226;2022-07-29T11:39:30;101797.56;;;21.73;100.00
25498;BME280;13406;53.380;7.226;2022-07-29T11:44:57;101790.25;;;21.79;100.00
25498;BME280;13406;53.380;7.226;2022-07-29T11:47:24;101743.97;;;21.50;100.00
25498;BME280;13406;53.380;7.226;2022-07-29T11:49:51;101788.44;;;21.84;100.00
25498;BME280;13406;53.380;7.226;2022-07-29T11:52:18;101771.81;;;21.69;100.00
25498;BME280;13406;53.380;7.226;2022-07-29T11:54:44;101649.28;;;21.00;100.00
25498;BME280;13406;53.380;7.226;2022-07-29T11:57:10;101684.09;;;21.27;100.00
25498;BME280;13406;53.380;7.226;2022-07-29T11:59:43;101789.97;;;21.97;100.00
25498;BME280;13406;53.380;7.226;2022-07-29T12:02:10;101783.59;;;21.92;100.00
25498;BME280;13406;53.380;7.226;2022-07-29T12:04:52;101753.38;;;21.76;100.00
25498;BME280;13406;53.380;7.226;2022-07-29T12:07:18;101761.41;;;21.66;100.00
25498;BME280;13406;53.380;7.226;2022-07-29T12:09:51;101771.31;;;21.72;100.00
25498;BME280;13406;53.380;7.226;2022-07-29T12:12:17;101743.59;;;21.63;100.00
25498;BME280;13406;53.380;7.226;2022-07-29T12:14:42;101724.09;;;21.55;100.00
25498;BME280;13406;53.380;7.226;2022-07-29T12:17:32;101766.31;;;21.86;100.00
25498;BME280;13406;53.380;7.226;2022-07-29T12:20:03;101779.75;;;21.87;100.00
25498;BME280;13406;53.380;7.226;2022-07-29T12:22:37;101688.66;;;21.38;100.00
25498;BME280;13406;53.380;7.226;2022-07-29T12:25:07;101784.44;;;21.92;100.00
25498;BME280;13406;53.380;7.226;2022-07-29T12:27:33;101723.34;;;21.59;100.00
25498;BME280;13406;53.380;7.226;2022-07-29T12:30:06;101768.31;;;21.91;100.00
25498;BME280;13406;53.380;7.226;2022-07-29T12:32:33;101720.13;;;21.62;100.00
25498;BME280;13406;53.380;7.226;2022-07-29T12:35:09;101651.19;;;21.16;100.00
25498;BME280;13406;53.380;7.226;2022-07-29T12:37:36;101764.88;;;22.00;100.00
25498;BME280;13406;53.380;7.226;2022-07-29T12:40:04;101759.53;;;21.88;100.00
25498;BME280;13406;53.380;7.226;2022-07-29T12:42:30;101749.03;;;21.80;100.00
25498;BME280;13406;53.380;7.226;2022-07-29T12:44:55;101743.06;;;21.83;100.00
25498;BME280;13406;53.380;7.226;2022-07-29T12:47:22;101717.88;;;21.76;100.00
25498;BME280;13406;53.380;7.226;2022-07-29T12:49:48;101767.69;;;22.05;100.00
25498;BME280;13406;53.380;7.226;2022-07-29T12:52:28;101773.47;;;22.09;100.00
25498;BME280;13406;53.380;7.226;2022-07-29T12:54:54;101732.22;;;21.88;100.00
25498;BME280;13406;53.380;7.226;2022-07-29T12:57:20;101774.78;;;22.06;100.00
25498;BME280;13406;53.380;7.226;2022-07-29T13:02:26;101708.50;;;21.72;100.00
25498;BME280;13406;53.380;7.226;2022-07-29T13:04:56;101689.59;;;21.65;100.00
25498;BME280;13406;53.380;7.226;2022-07-29T13:07:28;101764.00;;;22.17;100.00
25498;BME280;13406;53.380;7.226;2022-07-29T13:10:10;101770.63;;;22.21;100.00
25498;BME280;13406;53.380;7.226;2022-07-29T13:12:36;101774.78;;;22.23;100.00
25498;BME280;13406;53.380;7.226;2022-07-29T13:15:14;101778.00;;;22.20;100.00
25498;BME280;13406;53.380;7.226;2022-07-29T13:17:41;101764.19;;;22.10;100.00
25498;BME280;13406;53.380;7.226;2022-07-29T13:20:10;101673.91;;;21.56;100.00
25498;BME280;13406;53.380;7.226;2022-07-29T13:22:38;101781.66;;;22.09;100.00
25498;BME280;13406;53.380;7.226;2022-07-29T13:25:04;101713.41;;;21.70;100.00
25498;BME280;13406;53.380;7.226;2022-07-29T13:27:33;101734.59;;;21.63;100.00
25498;BME280;13406;53.380;7.226;2022-07-29T13:30:04;101774.09;;;21.94;100.00
25498;BME280;13406;53.380;7.226;2022-07-29T13:32:31;101755.38;;;21.64;100.00
25498;BME280;13406;53.380;7.226;2022-07-29T13:35:03;101745.94;;;21.55;100.00
25498;BME280;13406;53.380;7.226;2022-07-29T13:37:29;101769.91;;;21.70;100.00